createdAt,value
2023-02-17T00:01:29.082Z,12.17
2023-02-17T00:04:02.452Z,11.96
2023-02-17T00:06:32.258Z,12.14
2023-02-17T00:09:01.840Z,12.22
2023-02-17T00:11:30.194Z,12.17
2023-02-17T00:14:00.343Z,12.35
2023-02-17T00:16:30.897Z,12.75
2023-02-17T00:19:02.426Z,12.16
2023-02-17T00:21:36.251Z,11.95
2023-02-17T00:24:16.677Z,12.08
2023-02-17T00:26:47.383Z,11.79
2023-02-17T00:29:15.589Z,11.11
2023-02-17T00:31:43.796Z,11.14
2023-02-17T00:34:20.360Z,11.50
2023-02-17T00:36:48.754Z,11.58
2023-02-17T00:39:18.693Z,11.45
2023-02-17T00:41:46.862Z,11.66
2023-02-17T00:44:20.023Z,11.61
2023-02-17T00:46:53.191Z,11.28
2023-02-17T00:49:27.510Z,10.61
2023-02-17T00:51:55.674Z,10.50
2023-02-17T00:54:23.756Z,10.39
2023-02-17T00:56:53.672Z,10.65
2023-02-17T00:59:22.983Z,10.91
2023-02-17T01:01:50.948Z,11.16
2023-02-17T01:04:18.763Z,10.94
2023-02-17T01:06:49.679Z,11.01
2023-02-17T01:09:17.479Z,11.39
2023-02-17T01:11:52.543Z,10.97
2023-02-17T01:14:20.410Z,11.07
2023-02-17T01:16:49.648Z,11.07
2023-02-17T01:19:20.200Z,11.15
2023-02-17T01:21:56.655Z,11.79
2023-02-17T01:24:27.491Z,11.54
2023-02-17T01:26:58.454Z,11.71
2023-02-17T01:29:26.778Z,12.23
2023-02-17T01:31:57.825Z,12.10
2023-02-17T01:34:28.813Z,12.52
2023-02-17T01:36:59.759Z,12.77
2023-02-17T01:39:31.238Z,12.53
2023-02-17T01:41:59.110Z,12.80
2023-02-17T01:44:27.399Z,12.80
2023-02-17T01:46:58.495Z,12.47
2023-02-17T01:49:35.527Z,12.63
2023-02-17T01:52:09.897Z,12.50
2023-02-17T01:54:41.324Z,11.80
2023-02-17T01:57:14.524Z,12.22
2023-02-17T01:59:42.599Z,12.26
2023-02-17T02:02:17.661Z,11.77
2023-02-17T02:04:50.541Z,12.14
2023-02-17T02:07:22.614Z,11.94
2023-02-17T02:09:53.407Z,12.17
2023-02-17T02:12:28.369Z,11.98
2023-02-17T02:14:59.859Z,11.75
2023-02-17T02:17:39.830Z,11.25
2023-02-17T02:20:44.504Z,10.93
2023-02-17T02:23:32.191Z,10.88
2023-02-17T02:26:30.265Z,11.12
2023-02-17T02:29:20.770Z,10.73
2023-02-17T02:31:57.043Z,10.84
2023-02-17T02:34:33.427Z,10.78
2023-02-17T02:37:12.880Z,11.23
2023-02-17T02:39:43.336Z,11.09
2023-02-17T02:42:15.112Z,11.54
2023-02-17T02:44:48.960Z,11.85
2023-02-17T02:47:46.734Z,11.90
2023-02-17T02:50:22.809Z,11.87
2023-02-17T02:53:05.387Z,11.48
2023-02-17T02:55:44.080Z,11.33
2023-02-17T02:58:20.399Z,12.02
2023-02-17T03:00:54.896Z,12.14
2023-02-17T03:03:26.528Z,11.70
2023-02-17T03:06:00.132Z,12.26
2023-02-17T03:08:30.691Z,12.21
2023-02-17T03:11:01.191Z,12.50
2023-02-17T03:13:33.900Z,12.63
2023-02-17T03:16:01.744Z,12.64
2023-02-17T03:18:29.591Z,12.62
2023-02-17T03:21:18.006Z,12.61
2023-02-17T03:23:46.151Z,12.73
2023-02-17T03:26:15.907Z,12.93
2023-02-17T03:28:43.685Z,12.57
2023-02-17T03:31:12.526Z,12.15
2023-02-17T03:33:40.411Z,12.32
2023-02-17T03:36:09.847Z,12.34
2023-02-17T03:38:37.734Z,11.92
2023-02-17T03:41:07.733Z,11.69
2023-02-17T03:43:42.938Z,12.41
2023-02-17T03:46:12.588Z,12.49
2023-02-17T03:48:40.573Z,11.55
2023-02-17T03:51:14.628Z,11.52
2023-02-17T03:53:43.331Z,11.60
2023-02-17T03:56:11.731Z,11.05
2023-02-17T03:58:43.085Z,11.75
2023-02-17T04:01:11.936Z,11.62
2023-02-17T04:03:42.960Z,11.81
2023-02-17T04:06:13.218Z,11.51
2023-02-17T04:08:41.473Z,10.38
2023-02-17T04:11:17.380Z,11.59
2023-02-17T04:13:45.446Z,11.76
2023-02-17T04:16:13.627Z,11.96
2023-02-17T04:18:43.722Z,11.88
2023-02-17T04:21:15.617Z,11.72
2023-02-17T04:23:43.582Z,11.82
2023-02-17T04:26:15.373Z,11.76
2023-02-17T04:28:44.524Z,11.62
2023-02-17T04:31:15.366Z,11.69
2023-02-17T04:33:44.195Z,11.50
2023-02-17T04:36:13.758Z,11.15
2023-02-17T04:38:41.665Z,11.26
2023-02-17T04:41:11.948Z,11.21
2023-02-17T04:43:42.835Z,11.08
2023-02-17T04:46:13.197Z,10.43
2023-02-17T04:48:43.869Z,10.71
2023-02-17T04:51:13.735Z,10.71
2023-02-17T04:53:41.516Z,10.81
2023-02-17T04:56:14.302Z,10.62
2023-02-17T04:58:44.543Z,10.83
2023-02-17T05:01:12.437Z,10.54
2023-02-17T05:03:47.445Z,10.71
2023-02-17T05:06:24.448Z,10.40
2023-02-17T05:08:54.721Z,10.48
2023-02-17T05:11:24.180Z,10.77
2023-02-17T05:13:52.299Z,10.85
2023-02-17T05:16:21.093Z,11.03
2023-02-17T05:18:48.966Z,11.22
2023-02-17T05:21:18.092Z,11.02
2023-02-17T05:23:45.890Z,10.88
2023-02-17T05:26:13.745Z,10.80
2023-02-17T05:28:41.543Z,10.80
2023-02-17T05:31:10.915Z,10.56
2023-02-17T05:33:42.721Z,11.14
2023-02-17T05:36:12.089Z,10.79
2023-02-17T05:38:46.284Z,10.71
2023-02-17T05:41:14.227Z,10.50
2023-02-17T05:43:44.292Z,11.00
2023-02-17T05:46:15.143Z,10.72
2023-02-17T05:48:44.214Z,10.91
2023-02-17T05:51:13.756Z,10.71
2023-02-17T05:53:46.795Z,10.84
2023-02-17T05:56:14.658Z,11.14
2023-02-17T05:58:42.508Z,10.94
2023-02-17T06:01:13.518Z,10.82
2023-02-17T06:03:45.534Z,11.25
2023-02-17T06:06:14.045Z,10.70
2023-02-17T06:09:00.734Z,9.52
2023-02-17T06:11:31.740Z,11.58
2023-02-17T06:14:02.065Z,11.04
2023-02-17T06:16:33.666Z,11.03
2023-02-17T06:19:02.310Z,10.95
2023-02-17T06:21:32.311Z,11.00
2023-02-17T06:24:03.026Z,11.45
2023-02-17T06:26:43.327Z,11.81
2023-02-17T06:29:16.963Z,10.90
2023-02-17T06:31:49.448Z,11.44
2023-02-17T06:34:17.619Z,11.58
2023-02-17T06:36:45.592Z,11.91
2023-02-17T06:39:14.745Z,12.27
2023-02-17T06:41:42.888Z,11.75
2023-02-17T06:44:10.926Z,11.73
2023-02-17T06:46:39.112Z,11.83
2023-02-17T06:49:06.964Z,11.99
2023-02-17T06:51:37.029Z,12.11
2023-02-17T06:54:05.591Z,11.90
2023-02-17T06:56:34.854Z,11.96
2023-02-17T06:59:04.870Z,11.81
2023-02-17T07:01:35.522Z,11.71
2023-02-17T07:04:05.940Z,11.64
2023-02-17T07:06:33.929Z,11.51
2023-02-17T07:09:02.505Z,11.80
2023-02-17T07:11:34.792Z,11.63
2023-02-17T07:14:02.890Z,11.30
2023-02-17T07:16:30.812Z,10.93
2023-02-17T07:18:59.022Z,11.75
2023-02-17T07:21:27.054Z,11.48
2023-02-17T07:23:55.155Z,11.10
2023-02-17T07:26:24.592Z,11.37
2023-02-17T07:28:56.792Z,11.36
2023-02-17T07:31:29.557Z,11.09
2023-02-17T07:33:59.700Z,11.03
2023-02-17T07:36:27.918Z,11.30
2023-02-17T07:38:55.769Z,11.44
2023-02-17T07:41:26.113Z,11.26
2023-02-17T07:43:57.132Z,11.32
2023-02-17T07:46:25.351Z,11.26
2023-02-17T07:48:56.262Z,11.14
2023-02-17T07:51:25.346Z,11.54
2023-02-17T07:53:56.983Z,11.36
2023-02-17T07:56:30.990Z,11.07
2023-02-17T07:59:02.612Z,11.28
2023-02-17T08:01:34.182Z,11.21
2023-02-17T08:04:07.538Z,11.37
2023-02-17T08:06:36.372Z,11.55
2023-02-17T08:09:23.483Z,11.21
2023-02-17T08:12:24.572Z,11.24
2023-02-17T08:14:58.489Z,11.14
2023-02-17T08:17:30.924Z,11.47
2023-02-17T08:20:01.895Z,11.24
2023-02-17T08:22:31.807Z,11.16
2023-02-17T08:25:09.035Z,11.74
2023-02-17T08:27:41.944Z,11.60
2023-02-17T08:30:15.305Z,11.52
2023-02-17T08:32:43.182Z,11.49
2023-02-17T08:35:11.163Z,11.18
2023-02-17T08:37:39.079Z,11.19
2023-02-17T08:40:10.178Z,11.73
2023-02-17T08:42:38.989Z,11.27
2023-02-17T08:45:07.775Z,11.50
2023-02-17T08:47:40.231Z,11.53
2023-02-17T08:50:11.613Z,11.22
2023-02-17T08:52:41.683Z,11.30
2023-02-17T08:55:12.705Z,11.09
2023-02-17T08:57:42.832Z,11.33
2023-02-17T09:00:13.482Z,11.25
2023-02-17T09:02:45.303Z,11.41
2023-02-17T09:05:15.238Z,11.04
2023-02-17T09:07:43.158Z,11.32
2023-02-17T09:10:12.030Z,11.54
2023-02-17T09:12:45.224Z,11.31
2023-02-17T09:15:13.316Z,11.73
2023-02-17T09:17:43.602Z,11.69
2023-02-17T09:20:24.069Z,11.84
2023-02-17T09:22:54.766Z,11.48
2023-02-17T09:25:25.897Z,11.84
2023-02-17T09:27:54.344Z,12.06
2023-02-17T09:30:22.663Z,11.75
2023-02-17T09:33:01.578Z,11.97
2023-02-17T09:35:34.949Z,12.28
2023-02-17T09:38:08.304Z,12.35
2023-02-17T09:40:44.491Z,12.33
2023-02-17T09:43:14.201Z,12.92
2023-02-17T09:45:44.190Z,12.88
2023-02-17T09:48:16.841Z,11.65
2023-02-17T09:50:53.794Z,13.45
2023-02-17T09:53:31.267Z,13.12
2023-02-17T09:56:00.861Z,13.36
2023-02-17T09:58:33.505Z,13.79
2023-02-17T10:01:04.815Z,13.93
2023-02-17T10:03:40.257Z,13.53
2023-02-17T10:06:17.452Z,13.31
2023-02-17T10:08:52.230Z,12.96
2023-02-17T10:11:27.072Z,12.91
2023-02-17T10:14:02.239Z,13.34
2023-02-17T10:16:42.382Z,13.70
2023-02-17T10:19:17.154Z,13.16
2023-02-17T10:21:56.849Z,13.45
2023-02-17T10:24:26.345Z,12.28
2023-02-17T10:27:19.359Z,13.81
2023-02-17T10:29:52.983Z,13.90
2023-02-17T10:32:27.629Z,13.58
2023-02-17T10:35:30.652Z,13.84
2023-02-17T10:38:09.468Z,13.73
2023-02-17T10:40:37.516Z,14.10
2023-02-17T10:43:07.900Z,13.84
2023-02-17T10:45:41.044Z,13.72
2023-02-17T10:48:11.143Z,13.92
2023-02-17T10:50:42.739Z,13.74
2023-02-17T10:53:19.542Z,13.66
2023-02-17T10:55:55.115Z,14.05
2023-02-17T10:58:26.431Z,13.68
2023-02-17T11:00:58.505Z,14.37
2023-02-17T11:03:30.463Z,14.43
2023-02-17T11:06:00.568Z,13.97
2023-02-17T11:08:40.831Z,13.90
2023-02-17T11:11:17.589Z,13.88
2023-02-17T11:13:47.986Z,13.55
2023-02-17T11:16:26.998Z,12.57
2023-02-17T11:18:58.592Z,13.66
2023-02-17T11:21:30.126Z,13.87
2023-02-17T11:24:04.526Z,13.59
2023-02-17T11:26:35.025Z,13.91
2023-02-17T11:29:17.687Z,13.97
2023-02-17T11:31:55.975Z,12.46
2023-02-17T11:34:25.999Z,14.06
2023-02-17T11:37:05.300Z,14.21
2023-02-17T11:39:40.076Z,14.00
2023-02-17T11:42:16.579Z,14.28
2023-02-17T11:44:44.696Z,13.86
2023-02-17T11:47:21.647Z,14.17
2023-02-17T11:50:18.577Z,14.17
2023-02-17T11:52:59.815Z,14.38
2023-02-17T11:55:38.924Z,13.85
2023-02-17T11:58:20.463Z,14.02
2023-02-17T12:00:54.601Z,14.22
2023-02-17T12:03:46.798Z,14.24
2023-02-17T12:06:22.392Z,14.14
2023-02-17T12:09:00.995Z,14.20
2023-02-17T12:11:35.586Z,14.09
2023-02-17T12:14:13.151Z,14.07
2023-02-17T12:16:47.290Z,14.57
2023-02-17T12:19:36.947Z,14.20
2023-02-17T12:22:15.292Z,14.19
2023-02-17T12:24:57.514Z,14.29
2023-02-17T12:27:37.665Z,14.30
2023-02-17T12:30:27.710Z,14.11
2023-02-17T12:33:19.690Z,13.86
2023-02-17T12:35:52.864Z,13.98
2023-02-17T12:38:32.291Z,14.06
2023-02-17T12:41:06.075Z,14.29
2023-02-17T12:43:40.631Z,14.63
2023-02-17T12:46:13.041Z,15.04
2023-02-17T12:48:45.023Z,14.92
2023-02-17T12:51:18.125Z,14.81
2023-02-17T12:53:49.324Z,14.37
2023-02-17T12:57:02.871Z,14.52
2023-02-17T12:59:37.837Z,14.35
2023-02-17T13:02:12.281Z,14.39
2023-02-17T13:04:41.167Z,14.53
2023-02-17T13:07:38.931Z,14.59
2023-02-17T13:10:11.440Z,14.75
2023-02-17T13:12:42.887Z,14.86
2023-02-17T13:15:34.660Z,14.58
2023-02-17T13:18:04.884Z,14.51
2023-02-17T13:20:45.851Z,15.02
2023-02-17T13:23:16.599Z,15.15
2023-02-17T13:25:46.994Z,15.28
2023-02-17T13:28:20.052Z,15.24
2023-02-17T13:30:53.343Z,14.95
2023-02-17T13:33:30.608Z,15.99
2023-02-17T13:36:02.295Z,15.54
2023-02-17T13:38:31.436Z,15.86
2023-02-17T13:41:05.035Z,15.88
2023-02-17T13:43:42.087Z,15.91
2023-02-17T13:46:17.919Z,15.58
2023-02-17T13:48:45.967Z,15.42
2023-02-17T13:51:27.350Z,15.15
2023-02-17T13:53:55.270Z,15.25
2023-02-17T13:56:28.379Z,15.00
2023-02-17T13:58:56.764Z,14.94
2023-02-17T14:01:30.041Z,15.07
2023-02-17T14:03:59.999Z,15.15
2023-02-17T14:06:29.575Z,16.05
2023-02-17T14:09:00.928Z,15.40
2023-02-17T14:11:32.765Z,15.74
2023-02-17T14:14:09.201Z,15.45
2023-02-17T14:17:07.338Z,15.32
2023-02-17T14:19:46.535Z,15.67
2023-02-17T14:22:27.343Z,15.09
2023-02-17T14:25:02.937Z,14.86
2023-02-17T14:27:49.868Z,15.14
2023-02-17T14:30:30.209Z,15.10
2023-02-17T14:33:33.930Z,14.88
2023-02-17T14:36:07.783Z,15.01
2023-02-17T14:38:46.933Z,15.02
2023-02-17T14:41:14.993Z,15.38
2023-02-17T14:43:42.886Z,14.84
2023-02-17T14:46:15.180Z,15.21
2023-02-17T14:48:42.994Z,15.14
2023-02-17T14:51:16.791Z,14.49
2023-02-17T14:53:45.567Z,14.90
2023-02-17T14:56:19.085Z,14.91
2023-02-17T14:58:49.867Z,14.18
2023-02-17T15:01:20.416Z,14.51
2023-02-17T15:03:48.717Z,14.34
2023-02-17T15:06:19.758Z,14.12
2023-02-17T15:08:49.326Z,14.44
2023-02-17T15:11:22.086Z,14.04
2023-02-17T15:13:50.389Z,13.99
2023-02-17T15:16:18.517Z,14.06
2023-02-17T15:18:46.399Z,13.80
2023-02-17T15:21:33.655Z,13.68
2023-02-17T15:24:04.825Z,13.61
2023-02-17T15:26:35.898Z,13.86
2023-02-17T15:29:03.872Z,13.77
2023-02-17T15:31:36.494Z,13.85
2023-02-17T15:34:06.949Z,13.48
2023-02-17T15:36:39.346Z,13.15
2023-02-17T15:39:07.197Z,13.86
2023-02-17T15:41:35.155Z,13.77
2023-02-17T15:44:03.612Z,13.29
2023-02-17T15:46:32.888Z,13.53
2023-02-17T15:49:02.271Z,13.73
2023-02-17T15:51:30.143Z,13.64
2023-02-17T15:53:59.322Z,13.64
2023-02-17T15:56:29.199Z,13.69
2023-02-17T15:58:57.374Z,13.45
2023-02-17T16:01:32.042Z,13.11
2023-02-17T16:04:00.353Z,13.48
2023-02-17T16:06:35.209Z,13.20
2023-02-17T16:09:05.187Z,13.26
2023-02-17T16:11:33.471Z,13.40
2023-02-17T16:14:02.010Z,13.36
2023-02-17T16:16:36.696Z,13.21
2023-02-17T16:19:06.942Z,13.27
2023-02-17T16:21:34.962Z,13.52
2023-02-17T16:24:05.364Z,13.29
2023-02-17T16:26:38.290Z,13.29
2023-02-17T16:29:15.714Z,13.51
2023-02-17T16:31:43.594Z,13.48
2023-02-17T16:34:18.443Z,13.18
2023-02-17T16:36:48.979Z,13.24
2023-02-17T16:39:21.061Z,13.04
2023-02-17T16:41:52.038Z,13.04
2023-02-17T16:44:21.260Z,13.39
2023-02-17T16:46:51.587Z,13.44
2023-02-17T16:49:28.263Z,13.55
2023-02-17T16:51:56.514Z,13.87
2023-02-17T16:54:25.928Z,13.94
2023-02-17T16:56:56.584Z,13.76
2023-02-17T16:59:29.265Z,14.09
2023-02-17T17:01:57.120Z,12.10
2023-02-17T17:04:29.860Z,13.96
2023-02-17T17:06:57.727Z,14.12
2023-02-17T17:09:30.761Z,13.08
2023-02-17T17:12:02.392Z,13.94
2023-02-17T17:14:30.158Z,13.77
2023-02-17T17:17:02.171Z,13.45
2023-02-17T17:19:32.154Z,13.58
2023-02-17T17:22:00.183Z,13.90
2023-02-17T17:24:28.195Z,13.46
2023-02-17T17:26:57.960Z,13.36
2023-02-17T17:29:25.767Z,13.74
2023-02-17T17:31:56.587Z,13.46
2023-02-17T17:34:24.408Z,13.25
2023-02-17T17:36:53.490Z,13.39
2023-02-17T17:39:24.918Z,13.47
2023-02-17T17:41:57.400Z,12.73
2023-02-17T17:44:28.641Z,13.17
2023-02-17T17:46:56.556Z,12.97
2023-02-17T17:49:27.804Z,13.09
2023-02-17T17:54:53.753Z,13.12
2023-02-17T17:57:22.554Z,13.05
2023-02-17T17:59:55.219Z,13.03
2023-02-17T18:02:23.095Z,12.80
2023-02-17T18:04:53.691Z,13.26
2023-02-17T18:07:21.535Z,13.39
2023-02-17T18:09:49.384Z,13.63
2023-02-17T18:12:21.373Z,13.21
2023-02-17T18:14:53.483Z,13.38
2023-02-17T18:17:23.396Z,13.52
2023-02-17T18:19:54.951Z,13.65
2023-02-17T18:22:26.399Z,13.67
2023-02-17T18:24:56.274Z,13.48
2023-02-17T18:27:24.700Z,13.60
2023-02-17T18:29:57.289Z,14.08
2023-02-17T18:32:25.563Z,12.54
2023-02-17T18:34:53.511Z,13.87
2023-02-17T18:37:24.277Z,14.31
2023-02-17T18:39:54.230Z,14.09
2023-02-17T18:42:22.124Z,14.36
2023-02-17T18:44:52.158Z,14.48
2023-02-17T18:47:21.341Z,14.13
2023-02-17T18:49:51.053Z,14.54
2023-02-17T18:52:20.654Z,14.95
2023-02-17T18:54:51.616Z,13.97
2023-02-17T18:57:22.159Z,13.68
2023-02-17T18:59:50.449Z,13.69
2023-02-17T19:02:18.832Z,13.34
2023-02-17T19:04:49.986Z,13.73
2023-02-17T19:07:17.969Z,13.64
2023-02-17T19:09:45.816Z,13.56
2023-02-17T19:12:16.640Z,13.12
2023-02-17T19:14:44.568Z,12.88
2023-02-17T19:17:12.775Z,12.91
2023-02-17T19:19:44.630Z,12.69
2023-02-17T19:22:19.102Z,12.97
2023-02-17T19:24:51.479Z,12.82
2023-02-17T19:27:19.349Z,12.69
2023-02-17T19:29:48.433Z,12.88
2023-02-17T19:32:18.026Z,12.50
2023-02-17T19:34:47.206Z,13.09
2023-02-17T19:37:20.347Z,13.13
2023-02-17T19:39:48.214Z,12.88
2023-02-17T19:42:18.369Z,12.90
2023-02-17T19:44:46.336Z,12.67
2023-02-17T19:47:14.440Z,12.77
2023-02-17T19:49:42.317Z,12.39
2023-02-17T19:52:10.539Z,12.41
2023-02-17T19:54:39.723Z,12.31
2023-02-17T19:57:10.034Z,12.26
2023-02-17T19:59:47.501Z,12.46
2023-02-17T20:02:18.032Z,12.30
2023-02-17T20:04:45.927Z,12.35
2023-02-17T20:07:15.734Z,12.11
2023-02-17T20:09:47.037Z,12.33
2023-02-17T20:12:20.883Z,11.89
2023-02-17T20:14:51.252Z,12.47
2023-02-17T20:17:21.498Z,12.31
2023-02-17T20:19:49.233Z,12.80
2023-02-17T20:22:19.539Z,12.72
2023-02-17T20:24:56.349Z,11.19
2023-02-17T20:27:26.840Z,12.24
2023-02-17T20:30:00.847Z,12.32
2023-02-17T20:32:28.920Z,11.61
2023-02-17T20:35:01.818Z,11.96
2023-02-17T20:37:29.625Z,12.15
2023-02-17T20:40:00.633Z,12.23
2023-02-17T20:42:28.506Z,12.26
2023-02-17T20:44:56.768Z,11.98
2023-02-17T20:47:24.573Z,12.26
2023-02-17T20:50:07.657Z,12.06
2023-02-17T20:52:35.511Z,12.15
2023-02-17T20:55:07.975Z,12.02
2023-02-17T20:57:37.083Z,11.88
2023-02-17T21:00:08.731Z,11.88
2023-02-17T21:02:36.655Z,12.14
2023-02-17T21:05:13.275Z,12.00
2023-02-17T21:07:41.722Z,11.90
2023-02-17T21:10:17.324Z,11.83
2023-02-17T21:12:45.434Z,11.68
2023-02-17T21:15:13.666Z,12.10
2023-02-17T21:17:46.574Z,12.14
2023-02-17T21:20:18.942Z,11.95
2023-02-17T21:22:47.472Z,12.06
2023-02-17T21:25:16.783Z,12.21
2023-02-17T21:27:50.242Z,12.12
2023-02-17T21:30:21.032Z,12.12
2023-02-17T21:32:55.203Z,12.60
2023-02-17T21:35:23.327Z,12.61
2023-02-17T21:37:54.838Z,12.70
2023-02-17T21:40:24.062Z,12.61
2023-02-17T21:43:11.584Z,12.39
2023-02-17T21:45:44.846Z,12.32
2023-02-17T21:48:13.449Z,10.34
2023-02-17T21:50:42.953Z,12.41
2023-02-17T21:53:11.151Z,12.51
2023-02-17T21:55:42.029Z,12.56
2023-02-17T21:58:09.876Z,12.66
2023-02-17T22:00:39.850Z,12.60
2023-02-17T22:03:10.533Z,12.77
2023-02-17T22:05:44.089Z,12.82
2023-02-17T22:08:15.493Z,12.68
2023-02-17T22:10:47.912Z,12.72
2023-02-17T22:13:16.249Z,12.51
2023-02-17T22:15:56.958Z,12.58
2023-02-17T22:18:26.402Z,12.86
2023-02-17T22:20:54.244Z,12.24
2023-02-17T22:23:22.394Z,12.71
2023-02-17T22:25:55.870Z,12.76
2023-02-17T22:28:23.655Z,12.59
2023-02-17T22:30:55.622Z,12.58
2023-02-17T22:33:27.388Z,12.37
2023-02-17T22:36:03.151Z,12.73
2023-02-17T22:38:33.077Z,12.92
2023-02-17T22:41:08.763Z,12.99
2023-02-17T22:43:37.482Z,12.71
2023-02-17T22:46:07.970Z,12.60
2023-02-17T22:48:37.832Z,12.86
2023-02-17T22:51:12.785Z,12.94
2023-02-17T22:53:42.558Z,12.88
2023-02-17T22:56:11.872Z,13.08
2023-02-17T22:58:40.143Z,12.98
2023-02-17T23:01:10.154Z,12.55
2023-02-17T23:03:38.320Z,12.67
2023-02-17T23:06:08.521Z,12.29
2023-02-17T23:08:36.496Z,12.72
2023-02-17T23:11:05.524Z,12.62
2023-02-17T23:13:39.166Z,12.41
2023-02-17T23:16:08.547Z,12.53
2023-02-17T23:18:37.333Z,12.62
2023-02-17T23:21:09.056Z,12.62
2023-02-17T23:23:37.372Z,12.46
2023-02-17T23:26:06.993Z,12.73
2023-02-17T23:28:41.614Z,12.51
2023-02-17T23:31:11.736Z,12.57
2023-02-17T23:33:39.680Z,12.66
2023-02-17T23:36:08.901Z,12.34
2023-02-17T23:38:38.981Z,12.40
2023-02-17T23:41:07.199Z,12.20
2023-02-17T23:43:36.350Z,12.46
2023-02-17T23:46:04.348Z,12.78
2023-02-17T23:48:32.227Z,11.28
2023-02-17T23:51:01.510Z,12.40
2023-02-17T23:53:32.473Z,12.40
2023-02-17T23:56:07.143Z,12.05
2023-02-17T23:58:36.671Z,12.21
